Terminal Aerodrome Forecast
Issued by NWS

Home | Current Version | Previous Version | Graphics & Text | Print | Product List | Glossary On
Versions: 1 2 3 4 5 6 7 8 9 10 11 12 13 14 15 16 17 18 19 20 21 22 23 24
000
FTUS43 KBIS 242142 AAD
TAFMOT
TAF AMD
KMOT 242142Z 2422/2518 15013G20KT P6SM BKN035 OVC060
     FM250300 30015G20KT 6SM -SHRA BR BKN008
     FM250600 32016G24KT 6SM -SHRA BR OVC003
     FM251200 31021G29KT P6SM OVC015
     FM251400 31021G29KT P6SM OVC050=

USA.gov is the U.S. government's official web portal to all federal, state and local government web resources and services.